Time;durP1;ratioP1;P1;durP2;ratioP2;P2;SDS_P1;SDS_P2;PMS_P1;PMS_P2;Temp;Humidity;BMP_temperature;BMP_pressure;BME280_temperature;BME280_humidity;BME280_pressure;Samples;Min_cycle;Max_cycle;Signal;HPM_P1;HPM_P2
2021/11/24 00:03:20;;;;;;;32.85;17.25;;;;;;;6.18;100.00;101337.29;3259825;86;2534428;-83
2021/11/24 00:15:34;;;;;;;36.23;18.83;;;;;;;6.17;100.00;101329.41;3325742;86;99480;-84
2021/11/24 00:20:36;;;;;;;34.97;18.13;;;;;;;6.17;100.00;101326.09;3314048;86;115566;-84
2021/11/24 00:25:41;;;;;;;38.17;18.82;;;;;;;6.16;100.00;101331.33;3272667;86;2165295;-83
2021/11/24 00:30:44;;;;;;;34.17;17.83;;;;;;;6.16;100.00;101326.44;3378302;85;160153;-83
2021/11/24 00:35:46;;;;;;;41.48;20.45;;;;;;;6.16;100.00;101324.49;3373809;86;324725;-85
2021/11/24 00:40:51;;;;;;;35.87;18.17;;;;;;;6.08;100.00;101295.83;3380318;85;212260;-83
2021/11/24 00:45:56;;;;;;;38.80;19.40;;;;;;;6.18;100.00;101320.08;3305327;87;351682;-84
2021/11/24 00:51:01;;;;;;;33.45;18.12;;;;;;;6.16;100.00;101314.93;3291415;86;5669468;-84
2021/11/24 00:56:09;;;;;;;36.27;18.33;;;;;;;6.19;100.00;101325.77;3317722;86;322295;-83
2021/11/24 01:01:10;;;;;;;37.83;18.17;;;;;;;6.21;100.00;101313.97;3301550;85;3708492;-85
2021/11/24 01:06:17;;;;;;;37.98;16.87;;;;;;;6.19;100.00;101313.47;3274207;87;1759190;-84
2021/11/24 01:11:19;;;;;;;33.53;16.87;;;;;;;6.15;100.00;101318.80;3249521;86;4682206;-84
2021/11/24 01:16:23;;;;;;;32.27;17.27;;;;;;;6.14;100.00;101313.64;3346618;85;208632;-83
2021/11/24 01:21:24;;;;;;;34.23;18.73;;;;;;;6.12;100.00;101316.70;3318298;84;1832311;-84
2021/11/24 01:26:32;;;;;;;36.57;18.53;;;;;;;6.00;100.00;101299.39;3366831;86;132805;-84
2021/11/24 01:31:36;;;;;;;33.93;16.50;;;;;;;6.10;100.00;101304.48;3323159;86;2276099;-84
2021/11/24 01:36:37;;;;;;;35.33;17.35;;;;;;;6.08;100.00;101302.66;3349668;86;2389425;-83
2021/11/24 01:41:39;;;;;;;33.93;17.77;;;;;;;6.08;100.00;101294.45;3355177;86;346353;-84
2021/11/24 01:46:41;;;;;;;34.40;17.33;;;;;;;6.08;100.00;101291.17;3372938;86;220046;-83
2021/11/24 01:51:43;;;;;;;37.15;18.17;;;;;;;6.08;100.00;101295.83;3332610;86;2193876;-83
2021/11/24 01:56:45;;;;;;;32.30;16.70;;;;;;;6.09;100.00;101293.32;3329096;86;1576796;-83
2021/11/24 02:01:51;;;;;;;33.93;17.60;;;;;;;6.09;100.00;101287.30;3353413;86;182381;-83
2021/11/24 02:06:58;;;;;;;34.40;17.37;;;;;;;6.08;100.00;101278.88;3313544;86;99472;-84
2021/11/24 02:12:03;;;;;;;38.10;17.57;;;;;;;6.10;100.00;101277.97;3346117;86;470400;-83
2021/11/24 02:17:05;;;;;;;36.75;18.32;;;;;;;6.09;100.00;101275.56;3318157;86;2515167;-84
2021/11/24 02:22:12;;;;;;;36.20;17.55;;;;;;;6.08;100.00;101274.77;3283878;87;2080300;-84
2021/11/24 02:27:15;;;;;;;31.60;16.47;;;;;;;6.04;100.00;101269.72;3329115;85;151310;-84
2021/11/24 02:32:18;;;;;;;32.87;17.13;;;;;;;6.08;100.00;101272.59;3324234;86;181491;-83
2021/11/24 02:37:20;;;;;;;36.25;18.48;;;;;;;6.07;100.00;101270.99;3256106;86;5557945;-84
2021/11/24 02:42:21;;;;;;;38.27;17.53;;;;;;;6.05;100.00;101251.41;3327334;85;223970;-83
2021/11/24 02:47:25;;;;;;;34.35;16.55;;;;;;;6.02;100.00;101261.61;3334914;85;2171966;-83
2021/11/24 02:52:29;;;;;;;29.02;15.00;;;;;;;6.03;100.00;101257.73;3372251;84;108104;-83
2021/11/24 02:57:43;;;;;;;32.77;15.30;;;;;;;5.94;100.00;101241.38;3346583;86;151723;-84
2021/11/24 03:02:48;;;;;;;30.03;15.33;;;;;;;6.00;100.00;101255.67;3329757;85;400169;-83
2021/11/24 03:08:01;;;;;;;31.80;14.87;;;;;;;5.99;100.00;101243.12;3361242;86;362147;-84
2021/11/24 03:12:58;;;;;;;31.68;15.05;;;;;;;5.97;100.00;101244.84;3349889;85;99290;-83
2021/11/24 03:17:59;;;;;;;31.03;14.33;;;;;;;5.97;100.00;101237.19;3365202;85;169529;-84
2021/11/24 03:23:01;;;;;;;32.80;15.77;;;;;;;5.97;100.00;101238.00;3334875;84;223356;-84
2021/11/24 03:28:08;;;;;;;29.95;15.13;;;;;;;5.98;100.00;101233.32;3356785;85;215519;-84
2021/11/24 03:33:09;;;;;;;;;;;;;;;5.99;100.00;101240.38;3367544;86;123703;-82
2021/11/24 03:38:11;;;;;;;31.93;14.30;;;;;;;6.00;100.00;101235.19;3353794;86;167254;-83
2021/11/24 03:43:13;;;;;;;25.90;12.88;;;;;;;5.98;100.00;101241.52;3348669;85;99720;-84
2021/11/24 03:48:15;;;;;;;29.10;14.93;;;;;;;5.99;100.00;101231.64;3360996;86;165748;-83
2021/11/24 03:53:19;;;;;;;28.43;13.93;;;;;;;6.01;100.00;101241.66;3341025;86;186423;-84
2021/11/24 03:58:20;;;;;;;27.63;13.57;;;;;;;6.02;100.00;101231.00;3299489;86;1862271;-83
2021/11/24 04:03:26;;;;;;;29.17;13.77;;;;;;;6.02;100.00;101221.44;3334654;86;183997;-84
2021/11/24 04:08:27;;;;;;;30.57;13.93;;;;;;;6.04;100.00;101223.81;3344743;86;219161;-83
2021/11/24 04:13:28;;;;;;;25.97;13.85;;;;;;;6.05;100.00;101210.41;3349373;86;278481;-83
2021/11/24 04:18:30;;;;;;;30.48;14.85;;;;;;;6.05;100.00;101195.39;3292392;86;3893850;-84
2021/11/24 04:23:32;;;;;;;27.63;14.80;;;;;;;6.08;100.00;101200.18;3336341;86;99105;-83
2021/11/24 04:28:35;;;;;;;28.20;13.03;;;;;;;6.08;100.00;101193.34;3294236;86;2283125;-84
2021/11/24 04:33:38;;;;;;;27.00;12.33;;;;;;;6.11;100.00;101206.37;3337509;86;279915;-83
2021/11/24 04:38:45;;;;;;;29.60;15.20;;;;;;;6.13;100.00;101196.71;3326722;84;1429005;-83
2021/11/24 04:43:47;;;;;;;28.17;14.47;;;;;;;6.16;100.00;101193.89;3308916;86;1919109;-84
2021/11/24 04:48:47;;;;;;;27.20;13.93;;;;;;;6.18;100.00;101197.08;3355772;86;338237;-84
2021/11/24 04:53:49;;;;;;;29.27;14.07;;;;;;;6.16;100.00;101190.57;3333028;84;186865;-84
2021/11/24 05:03:55;;;;;;;26.70;15.03;;;;;;;6.18;100.00;101191.06;3340556;86;99257;-83
2021/11/24 05:08:57;;;;;;;25.17;12.40;;;;;;;6.19;100.00;101187.75;3334226;86;340245;-83
2021/11/24 05:14:00;;;;;;;26.27;13.07;;;;;;;6.16;100.00;101186.47;3350406;84;205898;-82
2021/11/24 05:19:06;;;;;;;27.97;13.33;;;;;;;6.18;100.00;101188.33;3340145;86;99580;-83
2021/11/24 05:24:06;;;;;;;25.57;13.90;;;;;;;6.18;100.00;101185.59;3345396;86;152068;-83
2021/11/24 05:29:10;;;;;;;26.43;13.43;;;;;;;6.20;100.00;101194.26;3338618;86;110771;-83
2021/11/24 05:34:14;;;;;;;23.32;12.53;;;;;;;6.21;100.00;101190.39;3327161;85;233968;-83
2021/11/24 05:39:20;;;;;;;26.63;12.53;;;;;;;6.24;100.00;101188.93;3313898;86;99267;-85
2021/11/24 05:44:25;;;;;;;27.13;14.70;;;;;;;6.25;100.00;101190.53;3342392;86;158235;-83
2021/11/24 05:49:24;;;;;;;24.93;12.77;;;;;;;6.26;100.00;101197.04;3347862;84;243535;-83
2021/11/24 05:54:26;;;;;;;24.63;12.77;;;;;;;6.28;100.00;101198.86;3329859;86;129271;-83
2021/11/24 05:59:29;;;;;;;25.07;13.20;;;;;;;6.29;100.00;101196.95;3334220;86;153106;-84
2021/11/24 06:04:30;;;;;;;24.27;12.67;;;;;;;6.30;100.00;101195.81;3349364;86;104557;-84
2021/11/24 06:09:32;;;;;;;22.65;12.35;;;;;;;6.33;100.00;101192.43;3346084;86;192514;-84
2021/11/24 06:14:33;;;;;;;29.20;13.60;;;;;;;6.25;100.00;101179.05;3277649;86;3494360;-84
2021/11/24 06:19:35;;;;;;;25.77;13.15;;;;;;;6.25;100.00;101179.05;3357819;86;166822;-84
2021/11/24 06:24:36;;;;;;;25.00;13.90;;;;;;;6.36;100.00;101202.14;3344539;86;119176;-83
2021/11/24 06:29:38;;;;;;;23.07;11.57;;;;;;;6.36;100.00;101204.05;3347330;86;330884;-84
2021/11/24 06:34:39;;;;;;;24.43;13.53;;;;;;;6.36;100.00;101199.95;3347475;86;99480;-84
2021/11/24 06:39:41;;;;;;;21.77;12.23;;;;;;;6.37;100.00;101204.28;3349443;86;146908;-84
2021/11/24 06:44:42;;;;;;;25.10;13.30;;;;;;;6.37;100.00;101202.92;3341626;86;267748;-82
2021/11/24 06:49:45;;;;;;;22.87;12.17;;;;;;;6.36;100.00;101202.14;3362413;86;98438;-85
2021/11/24 06:54:50;;;;;;;26.13;13.87;;;;;;;6.34;100.00;101204.97;3318329;86;210613;-85
2021/11/24 06:59:51;;;;;;;23.22;12.03;;;;;;;6.35;100.00;101218.31;3352591;86;251009;-84
2021/11/24 07:04:55;;;;;;;24.82;13.85;;;;;;;6.35;100.00;101211.47;3349896;85;99193;-85
2021/11/24 07:10:05;;;;;;;24.50;12.28;;;;;;;6.36;100.00;101214.44;3348447;85;2206590;-84
2021/11/24 07:15:11;;;;;;;26.63;13.53;;;;;;;6.37;100.00;101217.41;3356846;85;119926;-86
2021/11/24 07:20:13;;;;;;;23.80;12.90;;;;;;;6.39;100.00;101212.39;3374665;85;114187;-84
2021/11/24 07:25:14;;;;;;;25.27;13.20;;;;;;;6.40;100.00;101218.12;3344155;85;326424;-84
2021/11/24 07:30:18;;;;;;;23.83;12.77;;;;;;;6.43;100.00;101222.13;3366772;85;31117;-84
2021/11/24 07:35:22;;;;;;;22.45;10.32;;;;;;;6.44;100.00;101216.31;3356981;85;98930;-85
2021/11/24 07:40:34;;;;;;;25.57;12.20;;;;;;;6.47;100.00;101221.69;3273977;85;7704894;-84
2021/11/24 07:45:42;;;;;;;23.75;11.22;;;;;;;6.49;100.00;101223.55;3199953;86;7302321;-84
2021/11/24 07:51:06;;;;;;;21.30;9.93;;;;;;;6.50;100.00;101212.84;3243822;85;5164822;-85
2021/11/24 08:01:35;;;;;;;20.03;10.93;;;;;;;6.58;100.00;101215.52;3277628;84;99735;-87
2021/11/24 08:07:16;;;;;;;;;;;;;;;;;;;;;
2021/11/24 08:11:58;;;;;;;19.87;9.87;;;;;;;6.67;100.00;101212.17;3291132;86;2171527;-84
2021/11/24 08:17:20;;;;;;;21.00;9.67;;;;;;;6.71;100.00;101217.77;3350204;86;166244;-84
2021/11/24 08:22:07;;;;;;;19.90;10.18;;;;;;;6.72;100.00;101217.42;3338740;86;257072;-85
2021/11/24 08:27:08;;;;;;;20.23;8.80;;;;;;;6.76;100.00;101212.11;3364886;84;99420;-85
2021/11/24 08:32:15;;;;;;;17.65;9.60;;;;;;;6.81;100.00;101224.23;3333942;86;99263;-85
2021/11/24 08:37:20;;;;;;;21.35;9.68;;;;;;;6.85;100.00;101230.63;3344375;86;207516;-85
2021/11/24 08:42:38;;;;;;;18.20;10.32;;;;;;;6.88;100.00;101229.38;3302455;84;1855262;-86
2021/11/24 08:48:02;;;;;;;17.90;10.27;;;;;;;6.93;100.00;101220.98;3292556;84;3218927;-84
2021/11/24 08:53:10;;;;;;;17.60;8.98;;;;;;;6.98;100.00;101218.62;3215917;84;10128710;-84
2021/11/24 08:58:12;;;;;;;17.00;9.17;;;;;;;7.00;100.00;101218.53;3311103;86;99610;-84
2021/11/24 09:03:21;;;;;;;19.30;9.67;;;;;;;7.04;100.00;101214.55;3352489;86;127693;-86
2021/11/24 09:08:28;;;;;;;18.40;9.45;;;;;;;7.05;100.00;101212.86;3296821;84;4855079;-85
2021/11/24 09:13:35;;;;;;;17.73;9.03;;;;;;;7.09;100.00;101216.50;3308178;85;2218859;-85
2021/11/24 09:18:36;;;;;;;18.40;9.35;;;;;;;7.16;100.00;101207.77;3282644;86;5415517;-85
2021/11/24 09:23:43;;;;;;;17.90;9.10;;;;;;;7.23;100.00;101217.05;3321120;86;99680;-85
2021/11/24 09:28:59;;;;;;;16.97;8.13;;;;;;;7.25;100.00;101209.28;3356299;86;98892;-85
2021/11/24 09:34:01;;;;;;;16.77;8.37;;;;;;;7.27;100.00;101205.66;3234912;86;6541599;-85
2021/11/24 09:39:06;;;;;;;14.50;7.57;;;;;;;7.30;100.00;101215.14;3351187;84;189948;-85
2021/11/24 09:44:24;;;;;;;14.23;6.50;;;;;;;7.24;100.00;101192.63;3350311;86;287827;-85
2021/11/24 09:49:36;;;;;;;14.75;7.25;;;;;;;7.37;100.00;101201.70;3282069;86;5269702;-85
2021/11/24 09:54:57;;;;;;;13.97;7.00;;;;;;;7.42;100.00;101203.64;3329820;86;148761;-84
2021/11/24 10:00:11;;;;;;;12.45;6.62;;;;;;;7.46;100.00;101194.19;3283415;85;5192268;-85
2021/11/24 10:05:22;;;;;;;11.45;5.80;;;;;;;7.49;100.00;101194.89;3266616;86;2927067;-85
2021/11/24 10:23:49;;;;;;;14.77;5.00;;;;;;;7.71;100.00;101182.16;3686986;75;219158;-90
2021/11/24 10:29:15;;;;;;;11.20;5.40;;;;;;;7.69;100.00;101176.23;3509683;81;168772;-91
2021/11/24 10:34:39;;;;;;;10.15;4.70;;;;;;;7.77;100.00;101176.70;3512808;81;98957;-88
2021/11/24 10:39:45;;;;;;;11.50;5.23;;;;;;;7.79;100.00;101166.22;3478930;82;104841;-91
2021/11/24 10:44:52;;;;;;;12.45;4.75;;;;;;;7.85;100.00;101168.38;3542590;81;98789;-90
2021/11/24 10:49:57;;;;;;;10.97;4.50;;;;;;;7.97;100.00;101166.23;3519552;81;623296;-89
2021/11/24 10:55:14;;;;;;;10.78;5.05;;;;;;;8.06;100.00;101163.59;3543843;80;99086;-88
2021/11/24 11:00:22;;;;;;;10.48;5.42;;;;;;;8.12;100.00;101168.30;3506938;82;202773;-90
2021/11/24 11:05:24;;;;;;;;;;;;;;;8.12;100.00;101162.22;3524457;80;191254;-86
2021/11/24 11:10:33;;;;;;;8.95;3.72;;;;;;;8.10;100.00;101156.85;3526703;81;85127;-88
2021/11/24 11:15:47;;;;;;;8.50;4.47;;;;;;;8.09;100.00;101149.78;3554111;81;172827;-90
2021/11/24 11:21:07;;;;;;;9.20;3.72;;;;;;;8.13;100.00;101146.59;3527982;82;137796;-89
2021/11/24 11:26:16;;;;;;;8.95;3.77;;;;;;;8.15;100.00;101138.80;3528264;81;177175;-90
2021/11/24 11:31:20;;;;;;;15.18;5.30;;;;;;;8.16;100.00;101142.58;3534888;82;103492;-90
2021/11/24 11:36:23;;;;;;;8.68;3.75;;;;;;;8.13;100.00;101134.25;3543955;81;138482;-88
2021/11/24 11:41:32;;;;;;;8.18;3.75;;;;;;;8.10;100.00;101132.99;3536513;81;225906;-89
2021/11/24 11:46:44;;;;;;;7.42;3.30;;;;;;;8.06;100.00;101122.48;3532893;81;392836;-89
2021/11/24 11:51:48;;;;;;;4.85;2.55;;;;;;;8.11;100.00;101125.55;3438057;83;133311;-89
2021/11/24 11:56:49;;;;;;;5.58;2.62;;;;;;;8.12;100.00;101122.47;3455738;83;149060;-90
2021/11/24 12:02:00;;;;;;;8.10;3.35;;;;;;;8.15;100.00;101116.88;3581861;80;99123;-89
2021/11/24 12:07:16;;;;;;;12.35;5.03;;;;;;;8.18;100.00;101107.97;3549779;81;350296;-89
2021/11/24 12:12:24;;;;;;;14.25;6.60;;;;;;;8.18;100.00;101111.50;3570490;81;99251;-87
2021/11/24 12:17:35;;;;;;;11.18;5.45;;;;;;;8.19;100.00;101109.56;3572874;80;136401;-89
2021/11/24 12:22:51;;;;;;;10.65;5.10;;;;;;;8.16;100.00;101105.57;3575727;80;223950;-86
2021/11/24 12:27:58;;;;;;;12.65;5.95;;;;;;;8.15;100.00;101095.75;3589991;80;86272;-89
2021/11/24 12:33:07;;;;;;;10.23;4.50;;;;;;;8.11;100.00;101101.69;3593465;80;98951;-88
2021/11/24 12:38:08;;;;;;;6.60;3.35;;;;;;;8.10;100.00;101092.42;3602086;79;246817;-88
2021/11/24 12:43:18;;;;;;;5.80;2.90;;;;;;;8.08;100.00;101094.73;3607269;79;98841;-89
2021/11/24 12:48:24;;;;;;;7.97;3.30;;;;;;;8.07;100.00;101091.17;3611826;78;226645;-87
2021/11/24 12:53:26;;;;;;;;;;;;;;;8.02;100.00;101091.99;3589158;79;98802;-88
2021/11/24 12:58:27;;;;;;;8.38;4.60;;;;;;;7.99;100.00;101088.55;3607033;80;84958;-88
2021/11/24 13:03:30;;;;;;;15.07;7.73;;;;;;;7.98;100.00;101085.59;3559172;80;98462;-87
2021/11/24 13:08:31;;;;;;;8.40;3.27;;;;;;;7.98;100.00;101076.00;3614320;80;207170;-88
2021/11/24 13:13:33;;;;;;;13.10;5.80;;;;;;;7.96;100.00;101071.44;3587126;80;98732;-88
2021/11/24 13:18:34;;;;;;;8.90;4.58;;;;;;;7.95;100.00;101070.63;3627791;80;98840;-88
2021/11/24 13:23:36;;;;;;;9.20;4.17;;;;;;;7.93;100.00;101066.08;3600527;79;98709;-87
2021/11/24 13:28:38;;;;;;;9.50;4.50;;;;;;;7.91;100.00;101062.08;3603954;80;98622;-88
2021/11/24 13:33:41;;;;;;;9.73;5.08;;;;;;;7.87;100.00;101071.56;3610906;78;98696;-88
2021/11/24 13:38:53;;;;;;;9.53;4.60;;;;;;;7.88;100.00;101059.45;3581650;80;344583;-88
2021/11/24 13:44:02;;;;;;;7.80;4.28;;;;;;;7.86;100.00;101058.20;3570617;80;161033;-88
2021/11/24 13:49:23;;;;;;;12.43;6.15;;;;;;;7.83;100.00;101056.94;3539261;80;98823;-88
2021/11/24 13:54:24;;;;;;;14.83;7.33;;;;;;;7.79;100.00;101056.61;3522637;80;99118;-88
2021/11/24 13:59:32;;;;;;;11.67;5.10;;;;;;;7.77;100.00;101044.61;3566401;79;178631;-89
2021/11/24 14:04:49;;;;;;;9.55;4.40;;;;;;;7.74;100.00;101039.02;3563031;79;147554;-88
2021/11/24 14:09:56;;;;;;;9.48;4.53;;;;;;;7.71;100.00;101041.06;3511880;82;204804;-88
2021/11/24 14:15:05;;;;;;;7.28;3.67;;;;;;;7.68;100.00;101032.18;3488799;81;145559;-88
2021/11/24 14:20:27;;;;;;;7.05;2.80;;;;;;;7.65;100.00;101035.03;3472285;81;114268;-88
2021/11/24 14:25:36;;;;;;;7.70;3.02;;;;;;;7.62;100.00;101042.55;3475225;82;270696;-90
2021/11/24 14:30:41;;;;;;;8.78;3.52;;;;;;;7.58;100.00;101044.37;3497969;82;98868;-86
2021/11/24 14:35:44;;;;;;;8.53;3.12;;;;;;;7.53;99.80;101044.59;3488716;82;98282;-87
2021/11/24 14:40:45;;;;;;;7.40;3.10;;;;;;;7.48;99.63;101040.70;3454613;83;209775;-86
2021/11/24 14:45:48;;;;;;;7.90;3.90;;;;;;;7.46;99.66;101043.55;3419323;84;98400;-87
2021/11/24 14:50:50;;;;;;;12.27;4.70;;;;;;;7.42;99.66;101045.40;3417343;83;98363;-87
2021/11/24 14:55:51;;;;;;;11.67;5.77;;;;;;;7.39;99.89;101046.06;3463697;81;115108;-87
2021/11/24 15:00:54;;;;;;;18.73;8.07;;;;;;;7.37;99.91;101041.52;3473861;83;98852;-87
2021/11/24 15:05:55;;;;;;;26.42;10.05;;;;;;;7.34;99.97;101033.97;3486012;82;98656;-86
2021/11/24 15:10:58;;;;;;;14.28;6.58;;;;;;;7.29;99.98;101033.63;3488556;81;98865;-86
2021/11/24 15:16:01;;;;;;;13.05;6.33;;;;;;;7.25;99.93;101032.70;3483276;82;98580;-88
2021/11/24 15:21:03;;;;;;;13.75;6.87;;;;;;;7.22;100.00;101032.03;3514513;80;104081;-90
2021/11/24 15:26:09;;;;;;;15.77;6.40;;;;;;;7.17;100.00;101018.55;3531139;80;99372;-87
2021/11/24 15:31:09;;;;;;;19.70;9.20;;;;;;;7.12;100.00;101021.52;3540104;80;176118;-87
2021/11/24 15:36:11;;;;;;;17.25;8.23;;;;;;;7.07;100.00;101014.07;3493636;81;204812;-87
2021/11/24 15:41:11;;;;;;;20.68;9.10;;;;;;;7.05;100.00;101014.99;3503314;82;99127;-88
2021/11/24 15:46:14;;;;;;;21.83;9.13;;;;;;;7.05;100.00;101013.63;3483461;82;98888;-88
2021/11/24 15:51:18;;;;;;;21.30;9.73;;;;;;;7.01;100.00;101012.70;3539270;82;32312;-88
2021/11/24 15:56:23;;;;;;;30.82;13.58;;;;;;;6.99;100.00;101014.39;3540266;81;98723;-87
2021/11/24 16:01:26;;;;;;;28.02;11.20;;;;;;;6.96;100.00;101005.51;3517647;81;102608;-86
2021/11/24 16:06:27;;;;;;;26.12;10.05;;;;;;;6.93;100.00;100993.86;3440874;83;99194;-86
2021/11/24 16:11:28;;;;;;;20.10;10.03;;;;;;;6.89;100.00;101005.27;3451959;82;99005;-86
2021/11/24 16:16:29;;;;;;;24.00;11.13;;;;;;;6.88;100.00;101004.23;3471191;83;99046;-86
2021/11/24 16:21:30;;;;;;;21.63;11.47;;;;;;;6.87;100.00;101006.16;3493092;82;99035;-86
2021/11/24 16:26:32;;;;;;;30.13;14.00;;;;;;;6.85;100.00;101002.97;3497130;83;98839;-87
2021/11/24 16:31:33;;;;;;;29.80;14.37;;;;;;;6.82;100.00;101005.00;3459788;83;99261;-87
2021/11/24 16:36:34;;;;;;;33.83;16.83;;;;;;;6.80;100.00;100999.08;3480690;83;99031;-87
2021/11/24 16:41:35;;;;;;;35.73;16.43;;;;;;;6.79;100.00;100996.67;3450080;82;99068;-86
2021/11/24 16:46:37;;;;;;;27.20;14.43;;;;;;;6.80;100.00;100985.96;3510875;82;98999;-87
2021/11/24 16:51:39;;;;;;;28.33;15.07;;;;;;;6.78;100.00;100975.38;3402279;83;120555;-87
2021/11/24 16:56:39;;;;;;;26.87;14.50;;;;;;;6.76;100.00;100977.63;3409508;82;99088;-86
2021/11/24 17:01:40;;;;;;;33.18;15.45;;;;;;;6.74;100.00;100973.08;3476063;82;98960;-86
2021/11/24 17:06:42;;;;;;;26.77;14.50;;;;;;;6.73;100.00;100965.20;3500322;82;99146;-87
2021/11/24 17:11:43;;;;;;;28.60;15.15;;;;;;;6.73;100.00;100955.63;3502370;82;99604;-87
2021/11/24 17:16:44;;;;;;;26.20;15.17;;;;;;;6.71;100.00;100953.23;3514834;82;99065;-89
2021/11/24 17:21:46;;;;;;;31.70;16.20;;;;;;;6.69;100.00;100956.06;3512807;82;98902;-87
2021/11/24 17:26:47;;;;;;;33.07;17.13;;;;;;;6.66;100.00;100960.87;3518145;81;99284;-87
2021/11/24 17:31:48;;;;;;;29.90;16.35;;;;;;;6.66;100.00;100960.87;3505709;82;98835;-87
2021/11/24 17:36:49;;;;;;;39.17;18.90;;;;;;;6.65;100.00;100951.84;3516685;81;99516;-87
2021/11/24 17:41:51;;;;;;;45.70;21.83;;;;;;;6.65;100.00;100945.59;3529030;81;99092;-87
2021/11/24 17:46:52;;;;;;;44.60;21.13;;;;;;;6.67;100.00;100948.78;3549892;81;98950;-89
2021/11/24 17:51:54;;;;;;;30.80;16.73;;;;;;;6.64;100.00;100948.89;3533450;82;98809;-87
2021/11/24 17:56:55;;;;;;;35.47;18.03;;;;;;;6.64;100.00;100947.52;3533768;81;98906;-87
2021/11/24 18:01:58;;;;;;;35.90;16.17;;;;;;;6.62;100.00;100947.07;3514391;81;98855;-87
2021/11/24 18:06:59;;;;;;;29.47;15.00;;;;;;;6.60;100.00;100944.44;3537821;81;99475;-86
2021/11/24 18:12:03;;;;;;;33.10;16.67;;;;;;;6.53;100.00;100930.50;3519530;82;98968;-87
2021/11/24 18:17:05;;;;;;;28.67;14.30;;;;;;;6.54;100.00;100936.23;3521226;81;98969;-86
2021/11/24 18:22:06;;;;;;;30.48;14.55;;;;;;;6.50;100.00;100930.61;3520242;81;98982;-87
2021/11/24 18:27:09;;;;;;;26.93;13.80;;;;;;;6.47;100.00;100929.93;3594909;80;98712;-87
2021/11/24 18:32:10;;;;;;;29.65;15.35;;;;;;;6.44;100.00;100931.95;3584806;79;99510;-87
2021/11/24 18:37:11;;;;;;;27.25;15.13;;;;;;;6.43;100.00;100920.80;3589718;80;98960;-90
2021/11/24 18:42:13;;;;;;;30.72;14.63;;;;;;;6.41;100.00;100916.80;3600443;80;99058;-87
2021/11/24 18:47:14;;;;;;;27.70;14.37;;;;;;;6.41;100.00;100918.16;3596686;79;98970;-86
2021/11/24 18:52:15;;;;;;;27.80;14.10;;;;;;;6.41;100.00;100915.43;3580000;79;98923;-86
2021/11/24 18:57:17;;;;;;;29.03;14.57;;;;;;;6.42;100.00;100906.91;3590230;81;74720;-87
2021/11/24 19:02:20;;;;;;;29.17;15.20;;;;;;;6.43;100.00;100898.92;3600216;79;99018;-87
2021/11/24 19:07:21;;;;;;;29.20;16.40;;;;;;;6.43;100.00;100899.52;3559544;80;99148;-88
2021/11/24 19:12:22;;;;;;;33.17;16.80;;;;;;;6.43;100.00;100889.35;3596590;80;99058;-87
2021/11/24 19:17:24;;;;;;;37.33;20.40;;;;;;;6.43;100.00;100885.84;3605137;80;99054;-87
2021/11/24 19:22:25;;;;;;;38.00;19.60;;;;;;;6.43;100.00;100880.38;3585634;81;99999;-88
2021/11/24 19:27:26;;;;;;;36.17;16.90;;;;;;;6.43;100.00;100874.31;3584470;80;34820;-87
2021/11/24 19:32:27;;;;;;;39.33;19.33;;;;;;;6.43;100.00;100873.53;3595243;80;98980;-86
2021/11/24 19:37:28;;;;;;;43.97;21.73;;;;;;;6.44;100.00;100867.70;3585280;79;99464;-87
2021/11/24 19:42:30;;;;;;;39.37;21.27;;;;;;;6.43;100.00;100866.70;3562423;80;99029;-87
2021/11/24 19:47:31;;;;;;;43.73;21.47;;;;;;;6.42;100.00;100865.08;3589898;80;99404;-87
2021/11/24 19:52:32;;;;;;;39.48;20.72;;;;;;;6.41;100.00;100859.39;3591232;79;197089;-87
2021/11/24 19:57:34;;;;;;;39.57;21.90;;;;;;;6.40;100.00;100860.53;3596732;80;78129;-88
2021/11/24 20:02:35;;;;;;;47.43;23.87;;;;;;;6.37;100.00;100869.39;3587003;80;98876;-86
2021/11/24 20:07:36;;;;;;;46.20;22.90;;;;;;;6.35;100.00;100867.58;3593764;80;98775;-88
2021/11/24 20:12:42;;;;;;;49.87;22.83;;;;;;;6.35;100.00;100868.95;3599038;80;98951;-87
2021/11/24 20:17:41;;;;;;;53.20;24.80;;;;;;;6.33;100.00;100866.55;3576841;80;99008;-88
2021/11/24 20:22:44;;;;;;;42.50;22.73;;;;;;;6.32;100.00;100857.34;3567875;80;166957;-87
2021/11/24 20:27:47;;;;;;;41.70;20.43;;;;;;;6.30;100.00;100848.09;3583842;80;27151;-88
2021/11/24 20:32:48;;;;;;;42.88;20.32;;;;;;;6.27;100.00;100841.93;3583005;79;143033;-89
2021/11/24 20:37:49;;;;;;;39.27;20.57;;;;;;;6.24;100.00;100850.01;3593844;81;99074;-87
2021/11/24 20:42:52;;;;;;;40.40;20.10;;;;;;;6.21;100.00;100835.67;3590264;79;99074;-87
2021/11/24 20:47:53;;;;;;;41.33;20.10;;;;;;;6.19;100.00;100834.63;3596038;80;99047;-89
2021/11/24 20:52:55;;;;;;;39.73;20.47;;;;;;;6.19;100.00;100835.19;3583563;80;99182;-89
2021/11/24 20:57:56;;;;;;;40.52;20.68;;;;;;;6.18;100.00;100833.59;3602846;80;32031;-89
2021/11/24 21:02:59;;;;;;;42.10;21.77;;;;;;;6.15;100.00;100836.44;3587020;80;99092;-88
2021/11/24 21:08:00;;;;;;;50.60;22.50;;;;;;;6.15;100.00;100831.53;3599539;81;98853;-87
2021/11/24 21:13:02;;;;;;;38.33;20.05;;;;;;;6.12;100.00;100824.80;3586049;79;157767;-89
2021/11/24 21:18:04;;;;;;;41.15;20.35;;;;;;;6.10;100.00;100820.25;3585850;80;99595;-89
2021/11/24 21:23:05;;;;;;;38.60;20.20;;;;;;;6.10;100.00;100821.62;3601454;80;148744;-88
2021/11/24 21:28:07;;;;;;;36.63;18.57;;;;;;;6.08;100.00;100808.88;3612679;81;34883;-88
2021/11/24 21:33:09;;;;;;;37.40;19.00;;;;;;;6.07;100.00;100806.47;3557065;80;127507;-87
2021/11/24 21:38:10;;;;;;;36.68;18.12;;;;;;;6.06;100.00;100804.30;3594493;80;99040;-88
2021/11/24 21:43:18;;;;;;;38.13;19.33;;;;;;;6.05;100.00;100801.92;3581008;80;99048;-88
2021/11/24 21:48:22;;;;;;;38.37;19.53;;;;;;;6.06;100.00;100798.05;3591478;80;98999;-88
2021/11/24 21:53:29;;;;;;;34.97;19.53;;;;;;;6.04;100.00;100788.01;3585765;80;99377;-87
2021/11/24 21:58:30;;;;;;;33.83;17.50;;;;;;;6.04;100.00;100785.28;3530898;79;5461285;-87
2021/11/24 22:03:32;;;;;;;34.33;18.10;;;;;;;6.04;100.00;100787.45;3593286;80;99108;-87
2021/11/24 22:13:52;;;;;;;37.40;18.48;;;;;;;6.04;100.00;100777.08;3581415;80;146730;-87
2021/11/24 22:18:54;;;;;;;40.17;19.33;;;;;;;6.03;100.00;100761.27;3600703;80;99279;-89
2021/11/24 22:23:58;;;;;;;32.50;18.83;;;;;;;6.03;100.00;100766.73;3584909;80;99291;-87
2021/11/24 22:28:59;;;;;;;45.00;21.90;;;;;;;5.99;100.00;100761.71;3598409;79;126626;-86
2021/11/24 22:34:00;;;;;;;41.30;18.37;;;;;;;5.99;100.00;100749.42;3597610;79;98980;-88
2021/11/24 22:39:06;;;;;;;38.20;16.23;;;;;;;5.99;100.00;100743.14;3590608;81;98809;-88
2021/11/24 22:44:07;;;;;;;30.73;15.20;;;;;;;5.96;100.00;100737.01;3595466;79;99244;-87
2021/11/24 22:49:10;;;;;;;32.17;15.90;;;;;;;5.84;100.00;100706.94;3584943;79;1798994;-87
2021/11/24 22:54:11;;;;;;;35.00;15.50;;;;;;;5.90;100.00;100718.66;3588443;80;99297;-86
2021/11/24 22:59:13;;;;;;;32.85;14.90;;;;;;;5.94;100.00;100716.85;3591747;79;98940;-86
2021/11/24 23:04:15;;;;;;;29.18;13.98;;;;;;;5.95;100.00;100715.71;3592574;80;113157;-86
2021/11/24 23:09:17;;;;;;;31.37;15.72;;;;;;;5.97;100.00;100707.99;3587448;81;46994;-87
2021/11/24 23:14:19;;;;;;;28.63;14.73;;;;;;;5.95;100.00;100693.86;3591336;79;98982;-86
2021/11/24 23:19:21;;;;;;;36.33;16.00;;;;;;;5.95;100.00;100684.88;3593573;80;99141;-86
2021/11/24 23:24:24;;;;;;;29.35;13.80;;;;;;;5.92;100.00;100684.99;3574725;80;99459;-87
2021/11/24 23:29:25;;;;;;;28.83;13.93;;;;;;;5.92;100.00;100681.45;3591417;80;99416;-88
2021/11/24 23:34:27;;;;;;;24.33;12.83;;;;;;;5.92;100.00;100678.72;3565923;79;99074;-87
2021/11/24 23:39:31;;;;;;;26.17;13.17;;;;;;;5.90;100.00;100664.03;3596529;80;36084;-87